Terminal Aerodrome Forecast
Issued by NWS Detroit/Pontiac, MI

Home | Current Version | Previous Version | Text Only | Print | Product List | Glossary On
Versions: 1 2 3 4 5 6 7 8 9 10 11 12 13 14 15 16 17 18 19 20 21 22 23 24 25 26 27 28
892
FTUS43 KDTX 301127
TAFDTW
TAF
KDTW 301127Z 3012/0118 07005KT P6SM BKN150
     FM301500 10012KT P6SM BKN200
     FM302100 11011KT 6SM -RA OVC060
     FM010000 08012KT 3SM RA BR OVC015
     FM010600 07010KT 3SM -RA BR OVC007
     FM011500 05010KT P6SM OVC015=

USA.gov is the U.S. government's official web portal to all federal, state and local government web resources and services.